createdAt,value
2023-03-12T00:00:08.804Z,-5.20
2023-03-12T00:02:36.107Z,-5.10
2023-03-12T00:05:03.725Z,-5.10
2023-03-12T00:07:30.707Z,-5.00
2023-03-12T00:09:57.745Z,-5.10
2023-03-12T00:12:24.751Z,-5.10
2023-03-12T00:14:51.692Z,-5.10
2023-03-12T00:17:18.641Z,-5.10
2023-03-12T00:19:45.649Z,-5.10
2023-03-12T00:22:12.595Z,-5.10
2023-03-12T00:24:39.594Z,-5.10
2023-03-12T00:27:07.570Z,-5.10
2023-03-12T00:29:34.559Z,-5.00
2023-03-12T00:32:01.786Z,-5.00
2023-03-12T00:34:28.763Z,-5.10
2023-03-12T00:36:55.761Z,-5.00
2023-03-12T00:39:22.692Z,-4.90
2023-03-12T00:41:49.690Z,-4.80
2023-03-12T00:44:16.645Z,-4.90
2023-03-12T00:46:43.738Z,-5.00
2023-03-12T00:49:11.915Z,-5.00
2023-03-12T00:51:39.067Z,-5.10
2023-03-12T00:54:06.307Z,-5.10
2023-03-12T00:56:33.342Z,-5.10
2023-03-12T00:59:00.409Z,-5.20
2023-03-12T01:01:27.868Z,-5.20
2023-03-12T01:03:55.777Z,-5.30
2023-03-12T01:06:22.788Z,-5.30
2023-03-12T01:08:49.892Z,-5.30
2023-03-12T01:11:19.938Z,-5.30
2023-03-12T01:13:47.283Z,-5.30
2023-03-12T01:16:14.391Z,-5.30
2023-03-12T01:18:41.819Z,-5.30
2023-03-12T01:21:08.930Z,-5.30
2023-03-12T01:23:35.891Z,-5.30
2023-03-12T01:26:09.064Z,-5.30
2023-03-12T01:28:36.046Z,-5.30
2023-03-12T01:31:11.232Z,-5.30
2023-03-12T01:33:38.399Z,-5.10
2023-03-12T01:36:06.567Z,-5.10
2023-03-12T01:38:33.606Z,-5.10
2023-03-12T01:41:00.543Z,-5.10
2023-03-12T01:43:32.157Z,-5.30
2023-03-12T01:46:05.422Z,-5.40
2023-03-12T01:48:45.083Z,-5.40
2023-03-12T01:51:15.098Z,-5.40
2023-03-12T01:53:45.440Z,-5.50
2023-03-12T01:56:13.624Z,-5.40
2023-03-12T01:58:45.509Z,-5.30
2023-03-12T02:01:14.944Z,-5.20
2023-03-12T02:03:42.441Z,-5.20
2023-03-12T02:06:13.883Z,-5.10
2023-03-12T02:08:44.313Z,-5.00
2023-03-12T02:11:11.348Z,-4.90
2023-03-12T02:13:38.368Z,-4.80
2023-03-12T02:16:05.900Z,-4.60
2023-03-12T02:18:35.062Z,-4.50
2023-03-12T02:21:15.946Z,-4.30
2023-03-12T02:24:25.368Z,-4.10
2023-03-12T02:26:52.430Z,-4.00
2023-03-12T02:29:19.647Z,-3.80
2023-03-12T02:31:54.482Z,-3.70
2023-03-12T02:34:21.643Z,-3.60
2023-03-12T02:36:49.002Z,-3.50
2023-03-12T02:39:16.368Z,-3.40
2023-03-12T02:41:46.473Z,-3.30
2023-03-12T02:44:25.692Z,-3.30
2023-03-12T02:46:58.149Z,-3.10
2023-03-12T02:49:28.742Z,-3.10
2023-03-12T02:51:55.857Z,-3.00
2023-03-12T02:54:23.364Z,-2.90
2023-03-12T02:56:51.098Z,-2.70
2023-03-12T02:59:20.823Z,-2.60
2023-03-12T03:01:48.081Z,-2.60
2023-03-12T03:04:15.171Z,-2.60
2023-03-12T03:06:43.857Z,-2.60
2023-03-12T03:09:10.934Z,-2.60
2023-03-12T03:11:37.867Z,-2.60
2023-03-12T03:14:06.993Z,-2.60
2023-03-12T03:16:34.472Z,-2.60
2023-03-12T03:19:01.523Z,-2.60
2023-03-12T03:21:28.624Z,-2.60
2023-03-12T03:23:55.635Z,-2.60
2023-03-12T03:26:24.123Z,-2.60
2023-03-12T03:28:51.433Z,-2.60
2023-03-12T03:31:18.720Z,-2.70
2023-03-12T03:33:45.963Z,-2.80
2023-03-12T03:36:16.961Z,-2.90
2023-03-12T03:38:49.201Z,-2.80
2023-03-12T03:41:20.239Z,-2.80
2023-03-12T03:43:47.674Z,-2.70
2023-03-12T03:46:15.612Z,-2.80
2023-03-12T03:48:42.669Z,-2.80
2023-03-12T03:51:11.974Z,-2.80
2023-03-12T03:53:39.149Z,-2.90
2023-03-12T03:56:11.473Z,-2.90
2023-03-12T03:58:38.503Z,-2.90
2023-03-12T04:01:06.308Z,-2.90
2023-03-12T04:03:34.180Z,-2.90
2023-03-12T04:06:03.415Z,-2.80
2023-03-12T04:08:33.005Z,-2.70
2023-03-12T04:10:59.948Z,-2.60
2023-03-12T04:13:26.918Z,-2.60
2023-03-12T04:15:54.259Z,-2.50
2023-03-12T04:18:21.574Z,-2.40
2023-03-12T04:20:48.725Z,-2.40
2023-03-12T04:23:15.735Z,-2.40
2023-03-12T04:25:43.085Z,-2.40
2023-03-12T04:28:10.154Z,-2.30
2023-03-12T04:30:38.417Z,-2.40
2023-03-12T04:33:06.484Z,-2.40
2023-03-12T04:35:33.820Z,-2.30
2023-03-12T04:38:01.974Z,-2.30
2023-03-12T04:40:29.102Z,-2.30
2023-03-12T04:42:56.104Z,-2.20
2023-03-12T04:45:23.086Z,-2.20
2023-03-12T04:47:50.131Z,-2.20
2023-03-12T04:50:17.357Z,-2.20
2023-03-12T04:52:44.489Z,-2.20
2023-03-12T04:55:11.430Z,-2.20
2023-03-12T04:57:38.398Z,-2.30
2023-03-12T05:00:11.020Z,-2.30
2023-03-12T05:02:38.289Z,-2.30
2023-03-12T05:05:05.866Z,-2.30
2023-03-12T05:07:32.769Z,-2.30
2023-03-12T05:09:59.888Z,-2.30
2023-03-12T05:12:26.921Z,-2.30
2023-03-12T05:14:53.846Z,-2.30
2023-03-12T05:17:21.181Z,-2.30
2023-03-12T05:19:48.206Z,-2.20
2023-03-12T05:22:15.179Z,-2.10
2023-03-12T05:24:42.149Z,-2.00
2023-03-12T05:27:09.113Z,-2.00
2023-03-12T05:29:36.145Z,-1.90
2023-03-12T05:32:03.567Z,-1.90
2023-03-12T05:34:31.865Z,-1.80
2023-03-12T05:36:59.284Z,-1.80
2023-03-12T05:39:27.029Z,-1.70
2023-03-12T05:41:57.015Z,-1.70
2023-03-12T05:44:25.310Z,-1.60
2023-03-12T05:46:53.550Z,-1.50
2023-03-12T05:49:21.504Z,-1.40
2023-03-12T05:51:49.686Z,-1.30
2023-03-12T05:54:17.648Z,-1.10
2023-03-12T05:56:44.761Z,-1.00
2023-03-12T05:59:11.808Z,-1.00
2023-03-12T06:01:39.606Z,-1.00
2023-03-12T06:04:06.749Z,-1.00
2023-03-12T06:06:36.184Z,-1.00
2023-03-12T06:09:05.163Z,-1.00
2023-03-12T06:11:34.322Z,-1.00
2023-03-12T06:14:01.355Z,-0.90
2023-03-12T06:16:29.850Z,-1.00
2023-03-12T06:19:02.090Z,-1.00
2023-03-12T06:21:32.140Z,-1.00
2023-03-12T06:23:59.744Z,-1.00
2023-03-12T06:26:27.949Z,-1.00
2023-03-12T06:28:55.334Z,-0.90
2023-03-12T06:31:22.857Z,-0.80
2023-03-12T06:33:50.018Z,-0.70
2023-03-12T06:36:17.270Z,-0.60
2023-03-12T06:38:44.318Z,-0.60
2023-03-12T06:41:13.751Z,-0.60
2023-03-12T06:43:41.874Z,-0.60
2023-03-12T06:46:11.514Z,-0.50
2023-03-12T06:48:41.404Z,-0.50
2023-03-12T06:51:13.425Z,-0.30
2023-03-12T06:53:42.512Z,-0.30
2023-03-12T06:56:10.638Z,-0.20
2023-03-12T06:58:37.915Z,-0.20
2023-03-12T07:01:05.569Z,-0.40
2023-03-12T07:03:32.638Z,-0.40
2023-03-12T07:06:00.060Z,-0.40
2023-03-12T07:08:31.323Z,-0.30
2023-03-12T07:11:01.795Z,-0.20
2023-03-12T07:13:31.204Z,-0.10
2023-03-12T07:15:58.367Z,0.10
2023-03-12T07:18:25.393Z,0.20
2023-03-12T07:20:52.806Z,0.30
2023-03-12T07:23:20.583Z,0.50
2023-03-12T07:25:48.086Z,0.60
2023-03-12T07:28:16.624Z,0.80
2023-03-12T07:30:50.228Z,0.90
2023-03-12T07:33:20.518Z,1.00
2023-03-12T07:35:51.269Z,1.10
2023-03-12T07:38:19.236Z,1.20
2023-03-12T07:40:54.148Z,1.20
2023-03-12T07:43:22.088Z,1.40
2023-03-12T07:45:49.675Z,1.70
2023-03-12T07:48:19.609Z,1.50
2023-03-12T07:50:47.376Z,1.60
2023-03-12T07:53:14.483Z,1.70
2023-03-12T07:55:46.148Z,1.80
2023-03-12T07:58:14.154Z,1.80
2023-03-12T08:00:41.346Z,1.90
2023-03-12T08:03:08.978Z,1.90
2023-03-12T08:05:36.618Z,1.70
2023-03-12T08:08:03.882Z,1.70
2023-03-12T08:10:31.126Z,1.60
2023-03-12T08:12:58.233Z,1.60
2023-03-12T08:15:25.584Z,1.70
2023-03-12T08:17:52.693Z,1.70
2023-03-12T08:20:19.911Z,1.70
2023-03-12T08:22:46.932Z,1.70
2023-03-12T08:25:14.118Z,1.60
2023-03-12T08:27:41.404Z,1.70
2023-03-12T08:30:09.190Z,1.70
2023-03-12T08:33:21.773Z,1.80
2023-03-12T08:35:51.047Z,2.00
2023-03-12T08:38:18.739Z,2.30
2023-03-12T08:40:46.024Z,2.30
2023-03-12T08:43:13.329Z,2.50
2023-03-12T08:45:40.496Z,2.70
2023-03-12T08:48:07.990Z,2.70
2023-03-12T08:50:35.107Z,2.60
2023-03-12T08:53:02.219Z,2.70
2023-03-12T08:55:35.292Z,3.00
2023-03-12T08:58:07.080Z,3.00
2023-03-12T09:00:34.614Z,3.20
2023-03-12T09:03:04.094Z,3.80
2023-03-12T09:05:31.373Z,4.40
2023-03-12T09:07:58.925Z,4.20
2023-03-12T09:10:30.284Z,4.20
2023-03-12T09:12:57.951Z,3.80
2023-03-12T09:15:25.147Z,3.60
2023-03-12T09:17:52.262Z,3.70
2023-03-12T09:20:19.403Z,3.50
2023-03-12T09:22:46.441Z,3.40
2023-03-12T09:25:13.925Z,3.10
2023-03-12T09:27:43.820Z,2.90
2023-03-12T09:30:13.982Z,2.70
2023-03-12T09:32:41.567Z,2.80
2023-03-12T09:35:09.553Z,2.90
2023-03-12T09:37:36.879Z,2.70
2023-03-12T09:40:10.635Z,2.60
2023-03-12T09:42:49.763Z,2.40
2023-03-12T09:45:28.396Z,2.20
2023-03-12T09:48:04.368Z,2.40
2023-03-12T09:50:34.821Z,2.40
2023-03-12T09:53:12.085Z,2.30
2023-03-12T09:55:42.456Z,2.30
2023-03-12T09:58:40.331Z,2.40
2023-03-12T10:01:13.600Z,2.90
2023-03-12T10:04:08.019Z,2.70
2023-03-12T10:07:18.464Z,2.50
2023-03-12T10:10:11.326Z,2.50
2023-03-12T10:13:12.740Z,2.40
2023-03-12T10:16:09.476Z,2.60
2023-03-12T10:18:39.475Z,2.80
2023-03-12T10:22:03.895Z,3.00
2023-03-12T10:24:56.020Z,3.00
2023-03-12T10:27:28.038Z,3.10
2023-03-12T10:29:56.318Z,3.10
2023-03-12T10:32:51.974Z,2.80
2023-03-12T10:35:22.616Z,2.90
2023-03-12T10:37:57.184Z,3.20
2023-03-12T10:40:27.456Z,3.30
2023-03-12T10:42:54.712Z,2.90
2023-03-12T10:45:57.379Z,2.90
2023-03-12T10:48:26.420Z,2.90
2023-03-12T10:51:05.382Z,3.10
2023-03-12T10:53:48.573Z,3.00
2023-03-12T10:56:18.389Z,3.00
2023-03-12T10:58:51.717Z,2.90
2023-03-12T11:01:30.691Z,3.00
2023-03-12T11:04:15.750Z,3.00
2023-03-12T11:06:42.747Z,3.10
2023-03-12T11:09:17.303Z,3.40
2023-03-12T11:11:49.461Z,3.40
2023-03-12T11:14:22.812Z,3.60
2023-03-12T11:16:51.274Z,3.90
2023-03-12T11:19:35.320Z,4.00
2023-03-12T11:22:08.269Z,3.80
2023-03-12T11:24:35.846Z,3.90
2023-03-12T11:27:07.608Z,3.80
2023-03-12T11:29:47.191Z,3.50
2023-03-12T11:32:37.509Z,3.40
2023-03-12T11:35:10.859Z,3.50
2023-03-12T11:38:01.135Z,3.40
2023-03-12T11:41:10.344Z,3.40
2023-03-12T11:43:55.337Z,3.30
2023-03-12T11:46:32.719Z,3.50
2023-03-12T11:49:37.286Z,3.50
2023-03-12T11:52:20.601Z,3.50
2023-03-12T11:55:25.713Z,3.30
2023-03-12T11:58:31.682Z,3.40
2023-03-12T12:01:18.759Z,3.50
2023-03-12T12:04:13.310Z,3.60
2023-03-12T12:07:00.229Z,3.80
2023-03-12T12:09:27.168Z,3.90
2023-03-12T12:11:54.727Z,4.00
2023-03-12T12:14:58.156Z,4.00
2023-03-12T12:17:47.406Z,3.90
2023-03-12T12:20:34.191Z,4.10
2023-03-12T12:23:39.396Z,4.20
2023-03-12T12:26:12.431Z,4.30
2023-03-12T12:29:02.618Z,4.50
2023-03-12T12:31:37.419Z,4.60
2023-03-12T12:34:19.450Z,4.80
2023-03-12T12:36:56.114Z,4.90
2023-03-12T12:39:40.352Z,5.00
2023-03-12T12:42:13.447Z,4.90
2023-03-12T12:44:53.442Z,4.90
2023-03-12T12:47:30.232Z,4.80
2023-03-12T12:49:59.348Z,4.80
2023-03-12T12:52:27.692Z,4.80
2023-03-12T12:55:19.684Z,4.90
2023-03-12T12:57:54.937Z,5.00
2023-03-12T13:00:51.174Z,5.20
2023-03-12T13:03:21.931Z,5.20
2023-03-12T13:05:54.923Z,5.40
2023-03-12T13:08:34.295Z,5.60
2023-03-12T13:11:18.450Z,5.80
2023-03-12T13:13:51.320Z,6.10
2023-03-12T13:16:30.143Z,6.40
2023-03-12T13:19:13.721Z,6.60
2023-03-12T13:21:47.358Z,6.70
2023-03-12T13:24:33.302Z,6.80
2023-03-12T13:27:19.220Z,7.00
2023-03-12T13:29:46.493Z,7.10
2023-03-12T13:32:36.428Z,7.10
2023-03-12T13:35:18.499Z,7.20
2023-03-12T13:37:51.132Z,7.30
2023-03-12T13:40:30.157Z,7.30
2023-03-12T13:43:11.932Z,7.30
2023-03-12T13:45:47.898Z,7.20
2023-03-12T13:48:19.483Z,7.10
2023-03-12T13:50:59.331Z,7.10
2023-03-12T13:53:32.700Z,7.00
2023-03-12T13:56:14.098Z,7.00
2023-03-12T13:59:05.999Z,7.00
2023-03-12T14:01:41.485Z,7.00
2023-03-12T14:04:14.713Z,7.20
2023-03-12T14:07:02.557Z,7.50
2023-03-12T14:09:53.776Z,8.00
2023-03-12T14:12:26.771Z,8.50
2023-03-12T14:14:59.600Z,8.80
2023-03-12T14:17:33.007Z,9.10
2023-03-12T14:20:10.633Z,9.20
2023-03-12T14:22:39.689Z,9.10
2023-03-12T14:25:37.359Z,8.90
2023-03-12T14:28:11.707Z,8.70
2023-03-12T14:30:44.883Z,8.60
2023-03-12T14:33:14.650Z,8.50
2023-03-12T14:36:00.907Z,8.40
2023-03-12T14:38:46.231Z,8.30
2023-03-12T14:41:34.146Z,8.20
2023-03-12T14:44:07.360Z,8.20
2023-03-12T14:46:34.543Z,8.30
2023-03-12T14:49:01.605Z,8.30
2023-03-12T14:51:31.174Z,8.40
2023-03-12T14:54:02.705Z,8.40
2023-03-12T14:56:34.879Z,8.50
2023-03-12T14:59:26.587Z,8.40
2023-03-12T15:02:02.165Z,8.30
2023-03-12T15:04:30.755Z,8.10
2023-03-12T15:07:01.699Z,8.00
2023-03-12T15:09:31.410Z,7.80
2023-03-12T15:12:02.711Z,7.70
2023-03-12T15:14:35.147Z,7.60
2023-03-12T15:17:05.771Z,7.50
2023-03-12T15:19:42.185Z,7.40
2023-03-12T15:22:17.124Z,7.40
2023-03-12T15:24:44.581Z,7.70
2023-03-12T15:27:34.779Z,8.00
2023-03-12T15:30:02.479Z,8.20
2023-03-12T15:32:31.950Z,8.20
2023-03-12T15:34:59.837Z,8.10
2023-03-12T15:37:35.374Z,8.10
2023-03-12T15:40:23.745Z,8.10
2023-03-12T15:42:51.518Z,8.40
2023-03-12T15:45:39.223Z,8.60
2023-03-12T15:48:34.202Z,9.10
2023-03-12T15:51:01.453Z,9.60
2023-03-12T15:53:34.014Z,9.70
2023-03-12T15:56:21.646Z,10.00
2023-03-12T15:59:20.124Z,10.20
2023-03-12T16:01:49.578Z,10.30
2023-03-12T16:04:16.736Z,10.10
2023-03-12T16:06:47.136Z,10.00
2023-03-12T16:09:24.669Z,9.70
2023-03-12T16:11:53.720Z,9.30
2023-03-12T16:14:23.005Z,8.90
2023-03-12T16:16:51.379Z,8.50
2023-03-12T16:19:21.059Z,8.30
2023-03-12T16:21:48.739Z,8.10
2023-03-12T16:24:19.410Z,7.90
2023-03-12T16:26:58.761Z,7.80
2023-03-12T16:29:46.028Z,7.70
2023-03-12T16:32:16.321Z,7.60
2023-03-12T16:34:43.986Z,7.60
2023-03-12T16:37:12.328Z,7.50
2023-03-12T16:39:39.449Z,7.50
2023-03-12T16:42:14.365Z,7.40
2023-03-12T16:44:42.540Z,7.40
2023-03-12T16:47:13.694Z,7.30
2023-03-12T16:49:40.822Z,7.20
2023-03-12T16:52:21.970Z,7.20
2023-03-12T16:54:49.922Z,7.10
2023-03-12T16:57:32.720Z,7.00
2023-03-12T17:00:00.524Z,6.90
2023-03-12T17:02:29.888Z,6.90
2023-03-12T17:04:56.934Z,6.80
2023-03-12T17:07:23.910Z,6.80
2023-03-12T17:09:50.874Z,6.70
2023-03-12T17:12:32.876Z,6.70
2023-03-12T17:15:01.847Z,6.70
2023-03-12T17:17:28.900Z,6.60
2023-03-12T17:19:55.929Z,6.60
2023-03-12T17:22:22.894Z,6.60
2023-03-12T17:24:49.894Z,6.60
2023-03-12T17:27:16.909Z,6.60
2023-03-12T17:29:44.067Z,6.50
2023-03-12T17:32:11.242Z,6.50
2023-03-12T17:34:38.237Z,6.40
2023-03-12T17:37:05.178Z,6.40
2023-03-12T17:39:32.193Z,6.40
2023-03-12T17:41:59.156Z,6.40
2023-03-12T17:44:29.531Z,6.30
2023-03-12T17:46:59.715Z,6.30
2023-03-12T17:49:27.954Z,6.30
2023-03-12T17:51:55.274Z,6.20
2023-03-12T17:54:22.568Z,6.10
2023-03-12T17:56:49.659Z,6.00
2023-03-12T17:59:16.664Z,6.00
2023-03-12T18:01:43.648Z,6.00
2023-03-12T18:04:10.679Z,5.90
2023-03-12T18:06:37.599Z,6.00
2023-03-12T18:09:04.665Z,6.00
2023-03-12T18:11:31.635Z,6.00
2023-03-12T18:13:58.607Z,6.00
2023-03-12T18:16:25.698Z,5.90
2023-03-12T18:18:53.131Z,5.90
2023-03-12T18:21:20.295Z,5.90
2023-03-12T18:23:47.403Z,6.10
2023-03-12T18:26:14.518Z,6.10
2023-03-12T18:28:41.498Z,6.10
2023-03-12T18:31:08.962Z,6.20
2023-03-12T18:33:36.517Z,6.20
2023-03-12T18:36:04.345Z,6.20
2023-03-12T18:38:32.451Z,6.20
2023-03-12T18:41:10.813Z,6.30
2023-03-12T18:43:37.977Z,6.30
2023-03-12T18:46:05.593Z,6.40
2023-03-12T18:48:32.616Z,6.40
2023-03-12T18:50:59.513Z,6.50
2023-03-12T18:53:26.686Z,6.60
2023-03-12T18:55:55.408Z,6.60
2023-03-12T18:58:23.671Z,6.70
2023-03-12T19:00:58.527Z,6.70
2023-03-12T19:03:27.467Z,6.80
2023-03-12T19:06:05.919Z,6.70
2023-03-12T19:08:33.042Z,6.70
2023-03-12T19:11:00.592Z,6.70
2023-03-12T19:13:27.569Z,6.70
2023-03-12T19:15:59.703Z,6.70
2023-03-12T19:18:27.284Z,6.70
2023-03-12T19:20:54.557Z,6.70
2023-03-12T19:23:21.795Z,6.70
2023-03-12T19:25:48.864Z,6.70
2023-03-12T19:28:15.853Z,6.70
2023-03-12T19:30:42.821Z,6.80
2023-03-12T19:33:09.949Z,6.90
2023-03-12T19:35:41.029Z,6.90
2023-03-12T19:38:08.990Z,7.00
2023-03-12T19:40:36.193Z,6.90
2023-03-12T19:43:03.483Z,6.90
2023-03-12T19:45:30.597Z,6.90
2023-03-12T19:47:57.649Z,6.90
2023-03-12T19:50:24.685Z,7.00
2023-03-12T19:52:51.721Z,6.90
2023-03-12T19:55:18.695Z,6.90
2023-03-12T19:57:45.877Z,6.90
2023-03-12T20:00:13.179Z,6.90
2023-03-12T20:02:40.698Z,6.90
2023-03-12T20:05:08.977Z,6.90
2023-03-12T20:07:36.208Z,6.80
2023-03-12T20:10:03.637Z,6.80
2023-03-12T20:12:32.021Z,6.80
2023-03-12T20:14:59.013Z,6.90
2023-03-12T20:17:25.951Z,6.90
2023-03-12T20:19:53.232Z,6.90
2023-03-12T20:22:20.289Z,6.90
2023-03-12T20:24:47.233Z,6.90
2023-03-12T20:27:14.348Z,6.90
2023-03-12T20:29:43.525Z,6.90
2023-03-12T20:32:10.573Z,6.80
2023-03-12T20:34:37.750Z,6.80
2023-03-12T20:37:04.787Z,6.70
2023-03-12T20:39:31.760Z,6.60
2023-03-12T20:41:58.723Z,6.60
2023-03-12T20:44:25.742Z,6.50
2023-03-12T20:46:52.709Z,6.50
2023-03-12T20:49:19.698Z,6.50
2023-03-12T20:51:46.804Z,6.50
2023-03-12T20:54:13.777Z,6.50
2023-03-12T20:56:44.014Z,6.60
2023-03-12T20:59:12.576Z,6.60
2023-03-12T21:01:39.710Z,6.60
2023-03-12T21:04:06.755Z,6.60
2023-03-12T21:06:33.775Z,6.50
2023-03-12T21:09:00.816Z,6.50
2023-03-12T21:11:27.937Z,6.50
2023-03-12T21:13:55.120Z,6.50
2023-03-12T21:16:22.234Z,6.40
2023-03-12T21:18:49.280Z,6.50
2023-03-12T21:21:16.571Z,6.40
2023-03-12T21:23:43.628Z,6.40
2023-03-12T21:26:12.044Z,6.30
2023-03-12T21:28:39.033Z,6.30
2023-03-12T21:31:07.871Z,6.30
2023-03-12T21:33:35.192Z,6.20
2023-03-12T21:36:05.783Z,6.20
2023-03-12T21:38:34.448Z,6.20
2023-03-12T21:41:06.440Z,6.10
2023-03-12T21:43:33.446Z,6.00
2023-03-12T21:46:11.432Z,6.00
2023-03-12T21:48:39.428Z,5.90
2023-03-12T21:51:08.964Z,5.90
2023-03-12T21:53:36.794Z,5.90
2023-03-12T21:56:05.479Z,5.80
2023-03-12T21:58:33.595Z,5.70
2023-03-12T22:01:07.716Z,5.60
2023-03-12T22:03:35.261Z,5.60
2023-03-12T22:06:02.608Z,5.50
2023-03-12T22:08:29.660Z,5.40
2023-03-12T22:10:56.772Z,5.40
2023-03-12T22:13:23.937Z,5.40
2023-03-12T22:15:59.788Z,5.30
2023-03-12T22:18:27.830Z,5.20
2023-03-12T22:21:03.337Z,5.20
2023-03-12T22:23:31.038Z,5.20
2023-03-12T22:26:01.915Z,5.20
2023-03-12T22:28:29.158Z,5.20
2023-03-12T22:31:14.174Z,5.20
2023-03-12T22:33:42.412Z,5.20
2023-03-12T22:36:11.835Z,5.20
2023-03-12T22:38:39.947Z,5.20
2023-03-12T22:41:22.146Z,5.20
2023-03-12T22:43:50.587Z,5.20
2023-03-12T22:46:19.963Z,5.20
2023-03-12T22:48:48.907Z,5.20
2023-03-12T22:51:16.185Z,5.30
2023-03-12T22:53:43.259Z,5.30
2023-03-12T22:56:12.901Z,5.20
2023-03-12T22:58:40.324Z,5.20
2023-03-12T23:01:16.428Z,5.10
2023-03-12T23:03:44.747Z,5.10
2023-03-12T23:06:14.656Z,5.10
2023-03-12T23:08:41.770Z,5.10
2023-03-12T23:11:10.576Z,5.10
2023-03-12T23:13:40.457Z,5.10
2023-03-12T23:16:17.330Z,5.20
2023-03-12T23:18:44.871Z,5.20
2023-03-12T23:21:16.166Z,5.20
2023-03-12T23:23:44.258Z,5.20
2023-03-12T23:26:18.301Z,5.10
2023-03-12T23:28:47.401Z,5.10
2023-03-12T23:31:16.115Z,5.00
2023-03-12T23:33:44.450Z,5.00
2023-03-12T23:36:17.713Z,5.00
2023-03-12T23:38:45.994Z,5.00
2023-03-12T23:41:19.537Z,4.90
2023-03-12T23:43:48.099Z,4.90
2023-03-12T23:46:19.345Z,5.00
2023-03-12T23:48:47.044Z,5.10
2023-03-12T23:51:24.483Z,5.10
2023-03-12T23:53:55.314Z,5.00
2023-03-12T23:56:24.411Z,5.00
2023-03-12T23:58:52.107Z,4.90
